createdAt,value
2023-03-27T00:00:23.838Z,99.99
2023-03-27T00:01:23.862Z,99.99
2023-03-27T00:02:24.040Z,99.78
2023-03-27T00:03:23.959Z,99.88
2023-03-27T00:04:23.916Z,99.88
2023-03-27T00:05:23.925Z,99.88
2023-03-27T00:06:23.944Z,99.78
2023-03-27T00:07:23.980Z,99.99
2023-03-27T00:08:23.984Z,99.99
2023-03-27T00:09:24.007Z,99.68
2023-03-27T00:10:24.024Z,99.37
2023-03-27T00:11:24.032Z,99.52
2023-03-27T00:12:24.075Z,99.63
2023-03-27T00:13:24.068Z,99.63
2023-03-27T00:14:24.118Z,99.84
2023-03-27T00:15:24.125Z,99.32
2023-03-27T00:16:24.196Z,98.80
2023-03-27T00:17:24.154Z,99.11
2023-03-27T00:18:24.153Z,99.52
2023-03-27T00:19:24.172Z,99.84
2023-03-27T00:20:24.188Z,99.99
2023-03-27T00:21:24.210Z,99.94
2023-03-27T00:22:24.247Z,99.94
2023-03-27T00:23:24.237Z,99.99
2023-03-27T00:24:24.256Z,99.99
2023-03-27T00:25:24.271Z,99.99
2023-03-27T00:26:24.299Z,99.99
2023-03-27T00:27:24.328Z,99.99
2023-03-27T00:28:24.327Z,99.99
2023-03-27T00:29:24.340Z,99.99
2023-03-27T00:30:24.355Z,99.99
2023-03-27T00:31:24.494Z,99.99
2023-03-27T00:32:24.422Z,99.99
2023-03-27T00:33:24.414Z,99.99
2023-03-27T00:34:24.426Z,99.99
2023-03-27T00:35:24.446Z,99.99
2023-03-27T00:36:24.453Z,99.99
2023-03-27T00:37:24.489Z,99.99
2023-03-27T00:38:24.522Z,99.99
2023-03-27T00:39:24.512Z,99.99
2023-03-27T00:40:24.530Z,99.99
2023-03-27T00:41:24.591Z,99.99
2023-03-27T00:42:24.584Z,99.99
2023-03-27T00:43:24.583Z,99.99
2023-03-27T00:44:24.697Z,99.99
2023-03-27T00:45:24.655Z,99.99
2023-03-27T00:46:24.672Z,99.99
2023-03-27T00:47:24.727Z,99.99
2023-03-27T00:48:24.684Z,99.99
2023-03-27T00:49:24.702Z,99.99
2023-03-27T00:50:24.717Z,99.99
2023-03-27T00:51:24.730Z,99.99
2023-03-27T00:52:24.770Z,99.99
2023-03-27T00:53:24.773Z,99.99
2023-03-27T00:54:24.787Z,99.99
2023-03-27T00:55:24.802Z,99.99
2023-03-27T00:56:24.831Z,99.99
2023-03-27T00:57:24.855Z,99.99
2023-03-27T00:58:24.885Z,99.99
2023-03-27T00:59:24.880Z,99.99
2023-03-27T01:00:24.914Z,99.99
2023-03-27T01:01:24.950Z,99.99
2023-03-27T01:02:25.067Z,99.99
2023-03-27T01:03:25.052Z,99.99
2023-03-27T01:04:24.977Z,99.99
2023-03-27T01:05:24.994Z,99.99
2023-03-27T01:06:24.995Z,99.99
2023-03-27T01:07:25.055Z,99.99
2023-03-27T01:08:25.026Z,99.99
2023-03-27T01:09:25.039Z,99.99
2023-03-27T01:10:25.059Z,99.99
2023-03-27T01:11:25.076Z,99.99
2023-03-27T01:12:25.113Z,99.99
2023-03-27T01:13:25.111Z,99.99
2023-03-27T01:14:25.148Z,99.99
2023-03-27T01:15:25.148Z,99.99
2023-03-27T01:16:25.169Z,99.99
2023-03-27T01:17:25.216Z,99.99
2023-03-27T01:18:25.212Z,99.99
2023-03-27T01:19:25.225Z,99.99
2023-03-27T01:20:25.248Z,99.99
2023-03-27T01:21:25.244Z,99.99
2023-03-27T01:22:25.294Z,99.99
2023-03-27T01:23:58.680Z,99.99
2023-03-27T01:24:25.316Z,99.99
2023-03-27T01:25:25.325Z,99.99
2023-03-27T01:26:35.967Z,99.99
2023-03-27T01:27:25.378Z,99.99
2023-03-27T01:28:25.379Z,99.99
2023-03-27T01:29:25.393Z,99.99
2023-03-27T01:30:25.412Z,99.99
2023-03-27T01:31:25.498Z,99.99
2023-03-27T01:32:25.518Z,99.99
2023-03-27T01:33:25.466Z,99.99
2023-03-27T01:34:25.554Z,99.99
2023-03-27T01:35:25.547Z,99.99
2023-03-27T01:36:25.490Z,99.99
2023-03-27T01:37:25.521Z,99.99
2023-03-27T01:38:25.522Z,99.99
2023-03-27T01:39:25.548Z,99.99
2023-03-27T01:40:25.569Z,99.99
2023-03-27T01:41:25.584Z,99.99
2023-03-27T01:42:25.608Z,99.99
2023-03-27T01:43:25.627Z,99.99
2023-03-27T01:44:25.630Z,99.99
2023-03-27T01:45:25.660Z,99.99
2023-03-27T01:46:25.686Z,99.99
2023-03-27T01:47:25.734Z,99.99
2023-03-27T01:48:25.712Z,99.99
2023-03-27T01:49:25.733Z,99.99
2023-03-27T01:50:25.746Z,99.99
2023-03-27T01:51:25.771Z,99.99
2023-03-27T01:52:25.797Z,99.99
2023-03-27T01:53:25.802Z,99.99
2023-03-27T01:54:25.824Z,99.99
2023-03-27T01:55:25.853Z,99.99
2023-03-27T01:56:25.863Z,99.99
2023-03-27T01:57:25.908Z,99.99
2023-03-27T01:58:25.913Z,99.99
2023-03-27T01:59:25.923Z,99.99
2023-03-27T02:00:25.960Z,99.99
2023-03-27T02:01:26.009Z,99.99
2023-03-27T02:02:26.039Z,99.99
2023-03-27T02:03:25.989Z,99.99
2023-03-27T02:04:26.030Z,99.99
2023-03-27T02:05:26.018Z,99.99
2023-03-27T02:06:26.031Z,99.99
2023-03-27T02:07:26.079Z,99.99
2023-03-27T02:08:26.055Z,99.99
2023-03-27T02:09:26.077Z,99.99
2023-03-27T02:10:26.082Z,99.99
2023-03-27T02:11:26.107Z,99.99
2023-03-27T02:12:26.128Z,99.99
2023-03-27T02:13:26.137Z,99.99
2023-03-27T02:14:26.145Z,99.99
2023-03-27T02:15:26.276Z,99.99
2023-03-27T02:16:26.212Z,99.99
2023-03-27T02:17:26.517Z,99.99
2023-03-27T02:18:26.222Z,99.99
2023-03-27T02:19:26.249Z,99.99
2023-03-27T02:20:26.266Z,99.99
2023-03-27T02:21:26.288Z,99.99
2023-03-27T02:22:37.417Z,99.99
2023-03-27T02:23:26.323Z,99.99
2023-03-27T02:24:26.329Z,99.99
2023-03-27T02:25:26.364Z,99.99
2023-03-27T02:26:26.365Z,99.99
2023-03-27T02:27:26.406Z,99.99
2023-03-27T02:28:26.413Z,99.99
2023-03-27T02:29:26.434Z,99.99
2023-03-27T02:30:26.437Z,99.99
2023-03-27T02:31:31.738Z,99.99
2023-03-27T02:32:26.636Z,99.99
2023-03-27T02:33:26.488Z,99.99
2023-03-27T02:34:26.514Z,99.99
2023-03-27T02:35:26.563Z,99.99
2023-03-27T02:36:26.544Z,99.99
2023-03-27T02:37:33.054Z,99.99
2023-03-27T02:38:26.576Z,99.99
2023-03-27T02:39:26.603Z,99.99
2023-03-27T02:40:26.618Z,99.99
2023-03-27T02:41:26.637Z,99.99
2023-03-27T02:42:26.787Z,99.99
2023-03-27T02:43:26.678Z,99.99
2023-03-27T02:44:26.699Z,99.99
2023-03-27T02:45:26.714Z,99.99
2023-03-27T02:46:26.825Z,99.99
2023-03-27T02:47:26.791Z,99.99
2023-03-27T02:48:26.774Z,99.99
2023-03-27T02:49:26.798Z,99.99
2023-03-27T02:50:26.810Z,99.99
2023-03-27T02:51:26.840Z,99.99
2023-03-27T02:52:26.872Z,99.99
2023-03-27T02:53:26.876Z,99.99
2023-03-27T02:54:26.880Z,99.99
2023-03-27T02:55:26.915Z,99.99
2023-03-27T02:56:26.911Z,99.99
2023-03-27T02:57:26.954Z,99.99
2023-03-27T02:58:26.965Z,99.99
2023-03-27T02:59:26.961Z,99.99
2023-03-27T03:00:26.982Z,99.99
2023-03-27T03:01:27.022Z,99.99
2023-03-27T03:02:27.118Z,99.99
2023-03-27T03:03:27.076Z,99.99
2023-03-27T03:04:27.059Z,99.99
2023-03-27T03:05:27.087Z,99.99
2023-03-27T03:06:27.114Z,99.99
2023-03-27T03:07:27.150Z,99.99
2023-03-27T03:08:27.132Z,99.99
2023-03-27T03:09:27.157Z,99.99
2023-03-27T03:10:27.168Z,99.99
2023-03-27T03:11:27.189Z,99.99
2023-03-27T03:12:27.225Z,99.99
2023-03-27T03:13:27.231Z,99.99
2023-03-27T03:14:27.249Z,99.99
2023-03-27T03:15:27.266Z,99.99
2023-03-27T03:16:27.328Z,99.99
2023-03-27T03:17:27.350Z,99.99
2023-03-27T03:18:27.322Z,99.99
2023-03-27T03:19:27.353Z,99.99
2023-03-27T03:20:27.357Z,99.99
2023-03-27T03:21:27.380Z,99.99
2023-03-27T03:22:27.410Z,99.99
2023-03-27T03:23:27.409Z,99.99
2023-03-27T03:24:27.410Z,99.99
2023-03-27T03:25:27.437Z,99.99
2023-03-27T03:26:27.442Z,99.99
2023-03-27T03:27:27.484Z,99.99
2023-03-27T03:28:27.484Z,99.99
2023-03-27T03:29:27.500Z,99.99
2023-03-27T03:30:27.516Z,99.99
2023-03-27T03:32:27.594Z,99.99
2023-03-27T03:33:27.582Z,99.99
2023-03-27T03:34:27.732Z,99.99
2023-03-27T03:35:27.643Z,99.99
2023-03-27T03:36:27.613Z,99.99
2023-03-27T03:37:27.657Z,99.99
2023-03-27T03:38:27.649Z,99.99
2023-03-27T03:39:27.670Z,99.99
2023-03-27T03:40:27.697Z,99.99
2023-03-27T03:41:27.709Z,99.99
2023-03-27T03:42:27.746Z,99.99
2023-03-27T03:43:27.751Z,99.99
2023-03-27T03:44:27.752Z,99.99
2023-03-27T03:45:27.784Z,99.99
2023-03-27T03:46:27.843Z,99.99
2023-03-27T03:47:27.885Z,99.99
2023-03-27T03:48:27.835Z,99.99
2023-03-27T03:49:27.860Z,99.99
2023-03-27T03:50:27.860Z,99.99
2023-03-27T03:51:27.882Z,99.99
2023-03-27T03:52:27.920Z,99.99
2023-03-27T03:53:27.926Z,99.99
2023-03-27T03:54:27.930Z,99.99
2023-03-27T03:55:27.951Z,99.99
2023-03-27T03:56:27.981Z,99.99
2023-03-27T03:57:28.012Z,99.99
2023-03-27T03:58:34.834Z,99.99
2023-03-27T03:59:28.024Z,99.99
2023-03-27T04:00:28.036Z,99.99
2023-03-27T04:01:28.064Z,99.99
2023-03-27T04:02:28.275Z,99.99
2023-03-27T04:03:28.263Z,99.99
2023-03-27T04:04:28.106Z,99.99
2023-03-27T04:05:28.129Z,99.99
2023-03-27T04:06:28.134Z,99.99
2023-03-27T04:07:28.174Z,99.99
2023-03-27T04:08:28.167Z,99.99
2023-03-27T04:09:28.189Z,99.99
2023-03-27T04:10:28.210Z,99.99
2023-03-27T04:11:28.231Z,99.99
2023-03-27T04:12:28.263Z,99.99
2023-03-27T04:13:28.271Z,99.99
2023-03-27T04:14:28.284Z,99.99
2023-03-27T04:15:28.308Z,99.99
2023-03-27T04:16:28.385Z,99.99
2023-03-27T04:17:28.439Z,99.99
2023-03-27T04:18:28.519Z,99.99
2023-03-27T04:19:28.387Z,99.99
2023-03-27T04:20:34.408Z,99.99
2023-03-27T04:21:28.417Z,99.99
2023-03-27T04:22:28.456Z,99.99
2023-03-27T04:23:28.450Z,99.99
2023-03-27T04:24:28.467Z,99.99
2023-03-27T04:25:28.495Z,99.99
2023-03-27T04:26:28.565Z,99.99
2023-03-27T04:27:28.542Z,99.99
2023-03-27T04:28:28.536Z,99.99
2023-03-27T04:29:28.552Z,99.99
2023-03-27T04:30:28.591Z,99.99
2023-03-27T04:31:28.644Z,99.99
2023-03-27T04:32:28.657Z,99.99
2023-03-27T04:33:31.001Z,99.99
2023-03-27T04:34:28.643Z,99.99
2023-03-27T04:35:28.685Z,99.99
2023-03-27T04:36:30.741Z,99.99
2023-03-27T04:37:28.732Z,99.99
2023-03-27T04:38:28.711Z,99.99
2023-03-27T04:39:28.731Z,99.99
2023-03-27T04:40:28.745Z,99.99
2023-03-27T04:41:28.769Z,99.99
2023-03-27T04:42:28.820Z,99.99
2023-03-27T04:43:28.811Z,99.99
2023-03-27T04:44:28.829Z,99.99
2023-03-27T04:45:28.863Z,99.99
2023-03-27T04:46:28.885Z,99.99
2023-03-27T04:47:28.922Z,99.99
2023-03-27T04:48:28.899Z,99.99
2023-03-27T04:49:28.926Z,99.99
2023-03-27T04:50:28.936Z,99.99
2023-03-27T04:51:28.961Z,99.99
2023-03-27T04:52:28.972Z,99.99
2023-03-27T04:53:28.994Z,99.99
2023-03-27T04:54:29.009Z,99.99
2023-03-27T04:55:29.029Z,99.99
2023-03-27T04:56:29.057Z,99.99
2023-03-27T04:57:29.066Z,99.99
2023-03-27T04:58:29.097Z,99.99
2023-03-27T04:59:29.110Z,99.99
2023-03-27T05:00:29.117Z,99.99
2023-03-27T05:01:29.216Z,99.99
2023-03-27T05:02:29.230Z,99.99
2023-03-27T05:03:29.257Z,99.99
2023-03-27T05:04:29.191Z,99.99
2023-03-27T05:05:29.208Z,99.99
2023-03-27T05:06:29.224Z,99.99
2023-03-27T05:07:29.246Z,99.99
2023-03-27T05:08:29.253Z,99.99
2023-03-27T05:09:29.277Z,99.99
2023-03-27T05:10:29.297Z,99.99
2023-03-27T05:11:29.309Z,99.99
2023-03-27T05:12:29.325Z,99.99
2023-03-27T05:13:29.336Z,99.99
2023-03-27T05:14:29.350Z,99.99
2023-03-27T05:15:29.387Z,99.99
2023-03-27T05:16:29.423Z,99.99
2023-03-27T05:17:29.421Z,99.99
2023-03-27T05:18:29.408Z,99.99
2023-03-27T05:19:29.432Z,99.99
2023-03-27T05:20:29.442Z,99.99
2023-03-27T05:21:29.470Z,99.99
2023-03-27T05:22:29.489Z,99.99
2023-03-27T05:23:29.505Z,99.99
2023-03-27T05:24:29.527Z,99.99
2023-03-27T05:25:29.545Z,99.99
2023-03-27T05:26:29.564Z,99.99
2023-03-27T05:27:29.588Z,99.99
2023-03-27T05:28:29.610Z,99.99
2023-03-27T05:29:29.617Z,99.99
2023-03-27T05:30:29.676Z,99.99
2023-03-27T05:31:29.677Z,99.99
2023-03-27T05:32:29.687Z,99.99
2023-03-27T05:33:29.692Z,99.99
2023-03-27T05:34:29.712Z,99.99
2023-03-27T05:35:29.781Z,99.99
2023-03-27T05:36:29.738Z,99.99
2023-03-27T05:37:29.764Z,99.99
2023-03-27T05:38:29.765Z,99.99
2023-03-27T05:39:29.792Z,99.99
2023-03-27T05:40:29.807Z,99.99
2023-03-27T05:41:29.837Z,99.99
2023-03-27T05:42:29.854Z,99.99
2023-03-27T05:43:29.863Z,99.99
2023-03-27T05:44:29.878Z,99.99
2023-03-27T05:45:29.897Z,99.99
2023-03-27T05:46:29.943Z,99.99
2023-03-27T05:47:29.970Z,99.99
2023-03-27T05:48:29.953Z,99.99
2023-03-27T05:49:30.998Z,99.99
2023-03-27T05:50:29.996Z,99.99
2023-03-27T05:51:30.008Z,99.99
2023-03-27T05:52:30.045Z,99.99
2023-03-27T05:53:30.037Z,99.99
2023-03-27T05:54:30.067Z,99.99
2023-03-27T05:55:30.082Z,99.99
2023-03-27T05:56:30.104Z,99.99
2023-03-27T05:57:30.142Z,99.99
2023-03-27T05:58:30.139Z,99.99
2023-03-27T05:59:30.157Z,99.99
2023-03-27T06:00:30.222Z,99.99
2023-03-27T06:01:30.198Z,99.99
2023-03-27T06:02:30.288Z,99.99
2023-03-27T06:03:30.606Z,99.99
2023-03-27T06:04:30.292Z,99.99
2023-03-27T06:05:30.260Z,99.99
2023-03-27T06:06:30.296Z,99.99
2023-03-27T06:07:30.308Z,99.99
2023-03-27T06:08:30.322Z,99.99
2023-03-27T06:09:30.331Z,99.99
2023-03-27T06:10:30.444Z,99.99
2023-03-27T06:11:30.364Z,99.99
2023-03-27T06:12:30.412Z,99.99
2023-03-27T06:13:30.394Z,99.99
2023-03-27T06:14:30.416Z,99.99
2023-03-27T06:15:30.473Z,99.99
2023-03-27T06:16:30.502Z,99.99
2023-03-27T06:17:30.514Z,99.99
2023-03-27T06:18:30.494Z,99.99
2023-03-27T06:19:30.503Z,99.99
2023-03-27T06:20:30.525Z,99.99
2023-03-27T06:21:30.545Z,99.99
2023-03-27T06:22:30.578Z,99.99
2023-03-27T06:23:30.576Z,99.99
2023-03-27T06:24:30.592Z,99.99
2023-03-27T06:25:30.604Z,99.99
2023-03-27T06:26:30.628Z,99.99
2023-03-27T06:27:30.661Z,99.99
2023-03-27T06:28:30.667Z,99.99
2023-03-27T06:29:30.682Z,99.99
2023-03-27T06:30:30.697Z,99.99
2023-03-27T06:31:30.776Z,99.99
2023-03-27T06:32:30.785Z,99.99
2023-03-27T06:33:30.766Z,99.99
2023-03-27T06:34:30.783Z,99.99
2023-03-27T06:35:30.901Z,99.99
2023-03-27T06:36:30.833Z,99.99
2023-03-27T06:37:30.849Z,99.99
2023-03-27T06:38:30.960Z,99.99
2023-03-27T06:39:30.864Z,99.99
2023-03-27T06:40:30.904Z,99.99
2023-03-27T06:41:30.892Z,99.99
2023-03-27T06:42:30.933Z,99.99
2023-03-27T06:43:30.925Z,99.99
2023-03-27T06:44:30.947Z,99.99
2023-03-27T06:45:30.972Z,99.99
2023-03-27T06:46:42.723Z,99.99
2023-03-27T06:47:31.932Z,99.99
2023-03-27T06:48:31.055Z,99.99
2023-03-27T06:49:31.032Z,99.99
2023-03-27T06:50:31.060Z,99.99
2023-03-27T06:51:31.071Z,99.99
2023-03-27T06:52:31.118Z,99.99
2023-03-27T06:53:35.497Z,99.99
2023-03-27T06:54:31.158Z,99.99
2023-03-27T06:55:31.139Z,99.99
2023-03-27T06:56:31.168Z,99.99
2023-03-27T06:57:31.197Z,99.99
2023-03-27T06:58:31.209Z,99.99
2023-03-27T06:59:31.224Z,99.99
2023-03-27T07:00:31.247Z,99.99
2023-03-27T07:01:31.299Z,99.99
2023-03-27T07:02:31.327Z,99.99
2023-03-27T07:03:31.306Z,99.99
2023-03-27T07:04:31.327Z,99.99
2023-03-27T07:05:31.368Z,99.99
2023-03-27T07:06:31.345Z,99.99
2023-03-27T07:07:31.378Z,99.99
2023-03-27T07:08:31.400Z,99.99
2023-03-27T07:09:31.402Z,99.99
2023-03-27T07:10:31.442Z,99.99
2023-03-27T07:11:32.229Z,99.99
2023-03-27T07:12:31.466Z,99.99
2023-03-27T07:13:31.458Z,99.99
2023-03-27T07:14:31.484Z,99.99
2023-03-27T07:15:31.487Z,99.99
2023-03-27T07:16:31.539Z,99.99
2023-03-27T07:17:42.105Z,99.99
2023-03-27T07:18:31.620Z,99.99
2023-03-27T07:19:31.558Z,99.99
2023-03-27T07:20:31.582Z,99.99
2023-03-27T07:21:31.603Z,99.99
2023-03-27T07:22:31.638Z,99.99
2023-03-27T07:23:31.685Z,99.99
2023-03-27T07:24:31.659Z,99.99
2023-03-27T07:25:31.679Z,99.99
2023-03-27T07:26:31.683Z,99.99
2023-03-27T07:27:31.716Z,99.99
2023-03-27T07:28:31.722Z,99.99
2023-03-27T07:29:31.765Z,99.99
2023-03-27T07:30:31.764Z,99.99
2023-03-27T07:31:54.998Z,99.99
2023-03-27T07:32:37.176Z,99.99
2023-03-27T07:33:31.923Z,99.99
2023-03-27T07:34:31.831Z,99.99
2023-03-27T07:35:31.880Z,99.99
2023-03-27T07:36:31.854Z,99.99
2023-03-27T07:37:31.896Z,99.99
2023-03-27T07:38:31.925Z,99.99
2023-03-27T07:39:31.911Z,99.99
2023-03-27T07:40:39.448Z,99.99
2023-03-27T07:41:31.948Z,99.99
2023-03-27T07:42:31.977Z,99.99
2023-03-27T07:43:31.972Z,99.99
2023-03-27T07:44:31.991Z,99.99
2023-03-27T07:45:32.050Z,99.99
2023-03-27T07:46:32.028Z,99.99
2023-03-27T07:47:32.097Z,99.99
2023-03-27T07:48:32.065Z,99.99
2023-03-27T07:49:39.712Z,99.99
2023-03-27T07:50:32.115Z,99.99
2023-03-27T07:51:32.115Z,99.99
2023-03-27T07:52:32.160Z,99.99
2023-03-27T07:53:33.732Z,99.99
2023-03-27T07:54:32.179Z,99.99
2023-03-27T07:55:32.187Z,99.99
2023-03-27T07:56:32.212Z,99.99
2023-03-27T07:57:34.778Z,99.99
2023-03-27T07:58:32.318Z,99.99
2023-03-27T07:59:32.273Z,99.99
2023-03-27T08:00:32.280Z,99.99
2023-03-27T08:01:32.298Z,99.99
2023-03-27T08:02:32.353Z,99.99
2023-03-27T08:03:32.545Z,99.99
2023-03-27T08:04:32.496Z,99.99
2023-03-27T08:05:32.371Z,99.99
2023-03-27T08:06:32.389Z,99.99
2023-03-27T08:07:32.422Z,99.99
2023-03-27T08:08:32.421Z,99.99
2023-03-27T08:09:32.434Z,99.99
2023-03-27T08:10:32.483Z,99.99
2023-03-27T08:11:32.480Z,99.99
2023-03-27T08:12:32.525Z,99.99
2023-03-27T08:13:32.503Z,99.99
2023-03-27T08:14:32.532Z,99.99
2023-03-27T08:15:32.545Z,99.99
2023-03-27T08:16:32.595Z,99.99
2023-03-27T08:17:32.688Z,99.99
2023-03-27T08:18:32.609Z,99.99
2023-03-27T08:19:32.622Z,99.99
2023-03-27T08:20:32.645Z,99.99
2023-03-27T08:21:32.661Z,99.99
2023-03-27T08:22:32.716Z,99.99
2023-03-27T08:23:32.719Z,99.99
2023-03-27T08:24:32.726Z,99.99
2023-03-27T08:25:32.734Z,99.99
2023-03-27T08:26:32.764Z,99.99
2023-03-27T08:27:32.802Z,99.99
2023-03-27T08:28:32.792Z,99.99
2023-03-27T08:29:32.809Z,99.99
2023-03-27T08:30:32.873Z,99.99
2023-03-27T08:31:32.839Z,99.99
2023-03-27T08:32:32.916Z,99.99
2023-03-27T08:33:32.881Z,99.99
2023-03-27T08:34:32.901Z,99.88
2023-03-27T08:35:32.944Z,99.99
2023-03-27T08:36:32.941Z,99.99
2023-03-27T08:37:32.975Z,99.99
2023-03-27T08:38:32.974Z,99.99
2023-03-27T08:39:32.989Z,99.99
2023-03-27T08:40:33.017Z,99.99
2023-03-27T08:41:33.019Z,99.99
2023-03-27T08:42:33.067Z,99.46
2023-03-27T08:43:33.047Z,99.67
2023-03-27T08:44:33.074Z,99.99
2023-03-27T08:45:33.088Z,99.57
2023-03-27T08:46:33.135Z,99.42
2023-03-27T08:47:33.229Z,98.48
2023-03-27T08:48:33.136Z,98.80
2023-03-27T08:49:33.161Z,99.32
2023-03-27T08:50:33.168Z,99.21
2023-03-27T08:51:33.196Z,99.63
2023-03-27T08:52:33.263Z,99.90
2023-03-27T08:53:33.223Z,99.99
2023-03-27T08:54:33.246Z,98.23
2023-03-27T08:55:33.259Z,97.77
2023-03-27T08:56:33.318Z,98.19
2023-03-27T08:57:33.311Z,98.71
2023-03-27T08:58:33.316Z,97.56
2023-03-27T08:59:33.334Z,96.25
2023-03-27T09:00:33.350Z,96.15
2023-03-27T09:01:33.414Z,97.13
2023-03-27T09:02:33.502Z,98.44
2023-03-27T09:03:33.440Z,98.38
2023-03-27T09:04:33.795Z,98.17
2023-03-27T09:05:33.440Z,99.37
2023-03-27T09:06:33.459Z,97.44
2023-03-27T09:07:33.477Z,96.30
2023-03-27T09:08:33.495Z,96.15
2023-03-27T09:09:33.500Z,96.47
2023-03-27T09:10:33.527Z,96.52
2023-03-27T09:11:33.540Z,95.28
2023-03-27T09:12:33.565Z,96.42
2023-03-27T09:13:33.575Z,97.00
2023-03-27T09:14:33.599Z,95.13
2023-03-27T09:15:33.613Z,94.03
2023-03-27T09:16:33.686Z,95.38
2023-03-27T09:17:33.697Z,96.52
2023-03-27T09:18:33.655Z,94.45
2023-03-27T09:19:33.670Z,93.97
2023-03-27T09:20:33.947Z,94.18
2023-03-27T09:21:33.707Z,95.32
2023-03-27T09:22:33.755Z,96.78
2023-03-27T09:23:33.734Z,95.94
2023-03-27T09:24:33.760Z,95.53
2023-03-27T09:25:33.775Z,95.67
2023-03-27T09:26:33.803Z,96.36
2023-03-27T09:27:33.846Z,96.67
2023-03-27T09:28:33.839Z,96.88
2023-03-27T09:29:33.854Z,95.21
2023-03-27T09:30:33.894Z,94.38
2023-03-27T09:31:33.923Z,96.04
2023-03-27T09:32:33.985Z,96.15
2023-03-27T09:33:33.928Z,94.22
2023-03-27T09:34:33.965Z,93.49
2023-03-27T09:35:34.019Z,94.43
2023-03-27T09:36:33.990Z,94.22
2023-03-27T09:37:36.354Z,95.67
2023-03-27T09:38:34.026Z,96.41
2023-03-27T09:39:34.061Z,96.41
2023-03-27T09:40:34.071Z,96.41
2023-03-27T09:41:34.081Z,96.51
2023-03-27T09:42:34.200Z,96.92
2023-03-27T09:43:34.130Z,96.88
2023-03-27T09:44:34.138Z,96.04
2023-03-27T09:45:34.154Z,95.99
2023-03-27T09:46:34.217Z,95.57
2023-03-27T09:47:34.277Z,95.57
2023-03-27T09:48:34.208Z,94.84
2023-03-27T09:49:34.223Z,95.05
2023-03-27T09:50:34.243Z,96.09
2023-03-27T09:51:34.257Z,94.89
2023-03-27T09:52:34.329Z,95.20
2023-03-27T09:53:34.289Z,95.62
2023-03-27T09:54:34.309Z,94.99
2023-03-27T09:55:34.326Z,94.89
2023-03-27T09:56:34.369Z,95.93
2023-03-27T09:57:34.389Z,95.83
2023-03-27T09:58:34.431Z,95.89
2023-03-27T09:59:34.407Z,94.68
2023-03-27T10:00:34.486Z,95.20
2023-03-27T10:01:34.777Z,96.14
2023-03-27T10:02:34.580Z,95.30
2023-03-27T10:03:34.512Z,97.13
2023-03-27T10:04:34.492Z,97.55
2023-03-27T10:05:34.517Z,96.67
2023-03-27T10:06:34.530Z,96.36
2023-03-27T10:07:34.579Z,96.17
2023-03-27T10:08:34.565Z,95.40
2023-03-27T10:09:34.608Z,94.57
2023-03-27T10:10:34.603Z,93.18
2023-03-27T10:11:34.624Z,93.80
2023-03-27T10:12:34.658Z,93.59
2023-03-27T10:13:34.662Z,92.76
2023-03-27T10:14:34.712Z,92.76
2023-03-27T10:15:34.703Z,93.59
2023-03-27T10:16:34.795Z,93.07
2023-03-27T10:17:34.786Z,92.97
2023-03-27T10:18:34.765Z,91.83
2023-03-27T10:19:34.773Z,91.10
2023-03-27T10:20:34.791Z,90.69
2023-03-27T10:21:34.809Z,89.23
2023-03-27T10:22:34.850Z,88.67
2023-03-27T10:23:34.863Z,89.29
2023-03-27T10:24:34.877Z,89.81
2023-03-27T10:25:34.888Z,87.32
2023-03-27T10:26:34.888Z,89.34
2023-03-27T10:27:34.948Z,88.44
2023-03-27T10:28:34.933Z,85.78
2023-03-27T10:29:34.950Z,87.13
2023-03-27T10:30:34.991Z,86.36
2023-03-27T10:31:35.004Z,87.68
2023-03-27T10:32:35.116Z,88.46
2023-03-27T10:33:35.025Z,86.18
2023-03-27T10:34:35.037Z,83.48
2023-03-27T10:35:36.752Z,82.28
2023-03-27T10:36:35.059Z,85.08
2023-03-27T10:37:35.079Z,87.16
2023-03-27T10:38:35.087Z,88.61
2023-03-27T10:39:35.107Z,90.06
2023-03-27T10:40:35.109Z,87.68
2023-03-27T10:41:35.130Z,87.26
2023-03-27T10:42:35.151Z,87.30
2023-03-27T10:43:35.172Z,85.85
2023-03-27T10:44:35.198Z,87.26
2023-03-27T10:45:35.236Z,86.95
2023-03-27T10:46:35.265Z,86.39
2023-03-27T10:47:35.280Z,84.80
2023-03-27T10:48:35.267Z,83.93
2023-03-27T10:49:35.288Z,85.03
2023-03-27T10:50:35.293Z,83.44
2023-03-27T10:51:45.365Z,82.26
2023-03-27T10:52:35.349Z,82.26
2023-03-27T10:53:35.412Z,82.98
2023-03-27T10:54:35.413Z,81.78
2023-03-27T10:55:35.390Z,82.71
2023-03-27T10:56:35.412Z,81.40
2023-03-27T10:57:35.430Z,80.75
2023-03-27T10:58:35.434Z,80.99
2023-03-27T10:59:41.626Z,84.31
2023-03-27T11:00:35.460Z,84.05
2023-03-27T11:01:35.567Z,78.78
2023-03-27T11:02:35.550Z,81.18
2023-03-27T11:03:35.536Z,82.63
2023-03-27T11:04:35.524Z,83.28
2023-03-27T11:05:35.574Z,83.55
2023-03-27T11:06:35.554Z,80.51
2023-03-27T11:07:35.597Z,82.13
2023-03-27T11:08:35.586Z,79.13
2023-03-27T11:09:35.608Z,78.12
2023-03-27T11:10:35.631Z,75.95
2023-03-27T11:11:35.652Z,79.20
2023-03-27T11:12:35.678Z,74.26
2023-03-27T11:13:35.677Z,75.74
2023-03-27T11:14:35.683Z,78.34
2023-03-27T11:15:35.721Z,80.41
2023-03-27T11:16:35.804Z,78.65
2023-03-27T11:17:35.785Z,76.89
2023-03-27T11:18:35.755Z,79.06
2023-03-27T11:19:35.774Z,80.93
2023-03-27T11:20:35.787Z,81.24
2023-03-27T11:21:35.798Z,79.65
2023-03-27T11:22:35.830Z,78.27
2023-03-27T11:23:35.822Z,77.36
2023-03-27T11:24:35.827Z,79.50
2023-03-27T11:25:35.853Z,75.95
2023-03-27T11:26:35.869Z,77.56
2023-03-27T11:27:35.918Z,74.98
2023-03-27T11:28:35.902Z,74.77
2023-03-27T11:29:35.921Z,76.12
2023-03-27T11:30:35.940Z,73.98
2023-03-27T11:31:35.970Z,71.22
2023-03-27T11:32:36.018Z,74.43
2023-03-27T11:33:36.001Z,76.09
2023-03-27T11:34:36.005Z,76.09
2023-03-27T11:35:36.064Z,78.02
2023-03-27T11:36:36.049Z,72.33
2023-03-27T11:37:36.088Z,71.91
2023-03-27T11:38:36.093Z,68.12
2023-03-27T11:39:36.101Z,72.77
2023-03-27T11:40:36.127Z,74.53
2023-03-27T11:41:36.140Z,72.36
2023-03-27T11:42:36.137Z,72.56
2023-03-27T11:43:36.150Z,70.91
2023-03-27T11:44:36.158Z,69.87
2023-03-27T11:45:36.190Z,72.46
2023-03-27T11:46:36.226Z,74.71
2023-03-27T11:47:36.264Z,73.98
2023-03-27T11:48:36.232Z,71.39
2023-03-27T11:49:36.254Z,70.29
2023-03-27T11:50:36.278Z,69.87
2023-03-27T11:51:36.292Z,72.81
2023-03-27T11:52:36.316Z,70.15
2023-03-27T11:53:36.326Z,70.36
2023-03-27T11:54:36.348Z,70.73
2023-03-27T11:55:36.376Z,74.88
2023-03-27T11:56:36.429Z,72.67
2023-03-27T11:57:36.428Z,74.63
2023-03-27T11:58:36.420Z,76.05
2023-03-27T11:59:36.444Z,72.63
2023-03-27T12:00:36.504Z,74.77
2023-03-27T12:01:36.593Z,72.98
2023-03-27T12:02:36.558Z,72.77
2023-03-27T12:03:36.737Z,71.73
2023-03-27T12:04:36.553Z,70.21
2023-03-27T12:05:36.551Z,73.11
2023-03-27T12:06:36.575Z,72.29
2023-03-27T12:07:39.094Z,68.87
2023-03-27T12:08:36.603Z,71.36
2023-03-27T12:09:36.634Z,73.32
2023-03-27T12:10:36.642Z,70.11
2023-03-27T12:11:36.664Z,68.38
2023-03-27T12:12:36.700Z,69.32
2023-03-27T12:13:42.049Z,69.32
2023-03-27T12:14:40.510Z,71.08
2023-03-27T12:15:36.752Z,69.49
2023-03-27T12:16:36.845Z,71.33
2023-03-27T12:17:36.822Z,70.87
2023-03-27T12:18:36.969Z,71.98
2023-03-27T12:19:39.041Z,71.84
2023-03-27T12:20:41.601Z,69.74
2023-03-27T12:21:36.860Z,64.68
2023-03-27T12:22:36.883Z,65.64
2023-03-27T12:23:36.887Z,70.09
2023-03-27T12:24:37.122Z,66.67
2023-03-27T12:25:36.914Z,64.43
2023-03-27T12:26:37.803Z,65.36
2023-03-27T12:27:36.959Z,66.63
2023-03-27T12:28:38.306Z,65.19
2023-03-27T12:29:36.971Z,67.29
2023-03-27T12:30:36.990Z,66.05
2023-03-27T12:31:37.087Z,68.94
2023-03-27T12:32:37.087Z,69.15
2023-03-27T12:33:37.052Z,66.97
2023-03-27T12:34:37.053Z,66.74
2023-03-27T12:35:37.120Z,71.47
2023-03-27T12:36:37.095Z,68.23
2023-03-27T12:37:37.136Z,66.54
2023-03-27T12:38:37.128Z,66.41
2023-03-27T12:39:37.149Z,65.37
2023-03-27T12:40:37.168Z,67.65
2023-03-27T12:41:37.197Z,66.48
2023-03-27T12:42:43.722Z,62.43
2023-03-27T12:43:37.223Z,64.59
2023-03-27T12:44:37.240Z,63.01
2023-03-27T12:45:47.413Z,61.88
2023-03-27T12:46:37.444Z,61.57
2023-03-27T12:47:37.342Z,59.74
2023-03-27T12:48:37.308Z,63.35
2023-03-27T12:49:46.978Z,61.19
2023-03-27T12:50:37.345Z,65.94
2023-03-27T12:51:37.368Z,67.48
2023-03-27T12:52:37.392Z,63.67
2023-03-27T12:53:37.400Z,69.85